sensor_id;sensor_type;location;lat;lon;timestamp;pressure;altitude;pressure_sealevel;temperature;humidity
70229;BME280;57617;51.988;5.854;2023-03-03T00:00:25;102028.66;;;6.28;63.52
70229;BME280;57617;51.988;5.854;2023-03-03T00:02:50;102019.72;;;6.28;64.20
70229;BME280;57617;51.988;5.854;2023-03-03T00:05:18;102031.53;;;6.27;64.38
70229;BME280;57617;51.988;5.854;2023-03-03T00:07:44;102032.09;;;6.22;64.44
70229;BME280;57617;51.988;5.854;2023-03-03T00:10:11;102025.88;;;6.22;64.37
70229;BME280;57617;51.988;5.854;2023-03-03T00:12:45;102030.97;;;6.17;64.69
70229;BME280;57617;51.988;5.854;2023-03-03T00:15:17;102027.13;;;6.11;64.39
70229;BME280;57617;51.988;5.854;2023-03-03T00:17:43;102030.19;;;6.08;64.79
70229;BME280;57617;51.988;5.854;2023-03-03T00:22:50;102033.19;;;6.13;63.77
70229;BME280;57617;51.988;5.854;2023-03-03T00:25:29;102036.72;;;6.14;64.56
70229;BME280;57617;51.988;5.854;2023-03-03T00:28:00;102039.13;;;6.09;64.55
70229;BME280;57617;51.988;5.854;2023-03-03T00:30:26;102031.75;;;6.03;64.22
70229;BME280;57617;51.988;5.854;2023-03-03T00:32:53;102030.63;;;5.97;64.69
70229;BME280;57617;51.988;5.854;2023-03-03T00:35:31;102034.44;;;6.03;64.77
70229;BME280;57617;51.988;5.854;2023-03-03T00:38:01;102036.03;;;5.97;64.03
70229;BME280;57617;51.988;5.854;2023-03-03T00:40:35;102047.13;;;6.02;64.14
70229;BME280;57617;51.988;5.854;2023-03-03T00:43:12;102045.63;;;6.00;64.86
70229;BME280;57617;51.988;5.854;2023-03-03T00:45:55;102039.94;;;5.95;65.06
70229;BME280;57617;51.988;5.854;2023-03-03T00:48:29;102037.22;;;5.95;64.83
70229;BME280;57617;51.988;5.854;2023-03-03T00:51:00;102037.09;;;5.88;64.67
70229;BME280;57617;51.988;5.854;2023-03-03T00:53:28;102039.34;;;5.85;64.81
70229;BME280;57617;51.988;5.854;2023-03-03T00:55:53;102035.59;;;5.86;64.57
70229;BME280;57617;51.988;5.854;2023-03-03T00:58:20;102035.31;;;5.81;65.14
70229;BME280;57617;51.988;5.854;2023-03-03T01:00:51;102025.03;;;5.76;64.86
70229;BME280;57617;51.988;5.854;2023-03-03T01:03:22;102033.94;;;5.77;64.68
70229;BME280;57617;51.988;5.854;2023-03-03T01:05:50;102024.19;;;5.76;64.57
70229;BME280;57617;51.988;5.854;2023-03-03T01:08:16;102028.25;;;5.80;64.60
70229;BME280;57617;51.988;5.854;2023-03-03T01:10:47;102037.84;;;5.82;64.29
70229;BME280;57617;51.988;5.854;2023-03-03T01:13:17;102034.13;;;5.75;64.36
70229;BME280;57617;51.988;5.854;2023-03-03T01:15:43;102041.88;;;5.78;65.17
70229;BME280;57617;51.988;5.854;2023-03-03T01:18:10;102044.09;;;5.75;64.71
70229;BME280;57617;51.988;5.854;2023-03-03T01:20:36;102038.22;;;5.71;64.64
70229;BME280;57617;51.988;5.854;2023-03-03T01:23:01;102033.81;;;5.70;64.76
70229;BME280;57617;51.988;5.854;2023-03-03T01:25:27;102034.03;;;5.69;64.97
70229;BME280;57617;51.988;5.854;2023-03-03T01:27:52;102037.97;;;5.58;65.02
70229;BME280;57617;51.988;5.854;2023-03-03T01:30:17;102033.59;;;5.57;64.75
70229;BME280;57617;51.988;5.854;2023-03-03T01:32:43;102033.22;;;5.60;64.61
70229;BME280;57617;51.988;5.854;2023-03-03T01:35:08;102028.91;;;5.51;64.83
70229;BME280;57617;51.988;5.854;2023-03-03T01:37:34;102040.22;;;5.47;64.89
70229;BME280;57617;51.988;5.854;2023-03-03T01:40:00;102034.31;;;5.51;64.78
70229;BME280;57617;51.988;5.854;2023-03-03T01:42:26;102045.09;;;5.51;65.02
70229;BME280;57617;51.988;5.854;2023-03-03T01:45:16;102036.28;;;5.57;65.62
70229;BME280;57617;51.988;5.854;2023-03-03T01:47:53;102038.97;;;5.57;64.89
70229;BME280;57617;51.988;5.854;2023-03-03T01:53:03;102045.19;;;5.58;65.01
70229;BME280;57617;51.988;5.854;2023-03-03T01:55:36;102043.19;;;5.60;64.98
70229;BME280;57617;51.988;5.854;2023-03-03T01:58:25;102034.91;;;5.61;64.84
70229;BME280;57617;51.988;5.854;2023-03-03T02:00:56;102034.91;;;5.61;65.39
70229;BME280;57617;51.988;5.854;2023-03-03T02:03:24;102030.59;;;5.52;64.44
70229;BME280;57617;51.988;5.854;2023-03-03T02:05:52;102046.34;;;5.63;64.53
70229;BME280;57617;51.988;5.854;2023-03-03T02:08:22;102041.59;;;5.65;64.94
70229;BME280;57617;51.988;5.854;2023-03-03T02:10:51;102042.41;;;5.74;64.39
70229;BME280;57617;51.988;5.854;2023-03-03T02:13:17;102046.78;;;5.75;65.00
70229;BME280;57617;51.988;5.854;2023-03-03T02:15:43;102054.50;;;5.78;64.16
70229;BME280;57617;51.988;5.854;2023-03-03T02:18:10;102044.25;;;5.73;64.67
70229;BME280;57617;51.988;5.854;2023-03-03T02:21:14;102054.19;;;5.73;65.19
70229;BME280;57617;51.988;5.854;2023-03-03T02:24:09;102052.38;;;5.65;64.93
70229;BME280;57617;51.988;5.854;2023-03-03T02:26:40;102047.84;;;5.66;64.39
70229;BME280;57617;51.988;5.854;2023-03-03T02:29:06;102049.34;;;5.68;64.70
70229;BME280;57617;51.988;5.854;2023-03-03T02:31:32;102049.91;;;5.64;64.72
70229;BME280;57617;51.988;5.854;2023-03-03T02:33:58;102035.59;;;5.55;64.81
70229;BME280;57617;51.988;5.854;2023-03-03T02:36:29;102052.28;;;5.59;65.23
70229;BME280;57617;51.988;5.854;2023-03-03T02:42:02;102051.09;;;5.61;65.91
70229;BME280;57617;51.988;5.854;2023-03-03T02:44:31;102049.53;;;5.67;64.78
70229;BME280;57617;51.988;5.854;2023-03-03T02:46:57;102050.00;;;5.70;64.73
70229;BME280;57617;51.988;5.854;2023-03-03T02:49:25;102044.09;;;5.75;64.54
70229;BME280;57617;51.988;5.854;2023-03-03T02:51:51;102042.03;;;5.77;64.42
70229;BME280;57617;51.988;5.854;2023-03-03T02:54:18;102041.72;;;5.80;64.39
70229;BME280;57617;51.988;5.854;2023-03-03T02:56:44;102032.16;;;5.69;64.40
70229;BME280;57617;51.988;5.854;2023-03-03T02:59:10;102042.59;;;5.72;64.57
70229;BME280;57617;51.988;5.854;2023-03-03T03:01:35;102043.41;;;5.73;64.64
70229;BME280;57617;51.988;5.854;2023-03-03T03:04:33;102048.78;;;5.73;64.93
70229;BME280;57617;51.988;5.854;2023-03-03T03:06:58;102040.91;;;5.71;64.82
70229;BME280;57617;51.988;5.854;2023-03-03T03:09:24;102046.31;;;5.71;64.49
70229;BME280;57617;51.988;5.854;2023-03-03T03:11:50;102042.59;;;5.72;64.47
70229;BME280;57617;51.988;5.854;2023-03-03T03:14:16;102039.22;;;5.70;64.96
70229;BME280;57617;51.988;5.854;2023-03-03T03:16:41;102047.25;;;5.78;64.51
70229;BME280;57617;51.988;5.854;2023-03-03T03:19:07;102041.72;;;5.80;64.27
70229;BME280;57617;51.988;5.854;2023-03-03T03:21:33;102047.59;;;5.83;64.25
70229;BME280;57617;51.988;5.854;2023-03-03T03:23:58;102050.63;;;5.80;64.91
70229;BME280;57617;51.988;5.854;2023-03-03T03:26:24;102039.16;;;5.78;64.34
70229;BME280;57617;51.988;5.854;2023-03-03T03:28:50;102054.66;;;5.84;64.92
70229;BME280;57617;51.988;5.854;2023-03-03T03:31:17;102056.31;;;5.85;64.91
70229;BME280;57617;51.988;5.854;2023-03-03T03:33:43;102053.44;;;5.87;64.51
70229;BME280;57617;51.988;5.854;2023-03-03T03:36:09;102055.34;;;5.86;64.61
70229;BME280;57617;51.988;5.854;2023-03-03T03:38:35;102051.97;;;5.84;64.34
70229;BME280;57617;51.988;5.854;2023-03-03T03:41:01;102043.06;;;5.84;64.92
70229;BME280;57617;51.988;5.854;2023-03-03T03:43:27;102045.75;;;5.84;64.46
70229;BME280;57617;51.988;5.854;2023-03-03T03:45:52;102036.97;;;5.82;64.63
70229;BME280;57617;51.988;5.854;2023-03-03T03:48:18;102053.94;;;5.90;64.41
70229;BME280;57617;51.988;5.854;2023-03-03T03:50:45;102050.03;;;5.93;64.42
70229;BME280;57617;51.988;5.854;2023-03-03T03:53:11;102055.63;;;5.91;64.82
70229;BME280;57617;51.988;5.854;2023-03-03T03:55:36;102055.25;;;5.94;64.78
70229;BME280;57617;51.988;5.854;2023-03-03T03:58:01;102059.31;;;5.90;64.70
70229;BME280;57617;51.988;5.854;2023-03-03T04:00:26;102063.72;;;5.91;64.97
70229;BME280;57617;51.988;5.854;2023-03-03T04:02:52;102056.63;;;5.90;64.41
70229;BME280;57617;51.988;5.854;2023-03-03T04:05:18;102054.47;;;5.86;64.33
70229;BME280;57617;51.988;5.854;2023-03-03T04:07:43;102051.31;;;5.82;64.41
70229;BME280;57617;51.988;5.854;2023-03-03T04:10:09;102043.78;;;5.70;64.39
70229;BME280;57617;51.988;5.854;2023-03-03T04:12:34;102039.13;;;5.64;64.83
70229;BME280;57617;51.988;5.854;2023-03-03T04:15:10;102051.78;;;5.78;65.09
70229;BME280;57617;51.988;5.854;2023-03-03T04:17:36;102052.34;;;5.81;64.56
70229;BME280;57617;51.988;5.854;2023-03-03T04:20:02;102057.34;;;5.84;64.92
70229;BME280;57617;51.988;5.854;2023-03-03T04:22:28;102056.16;;;5.87;64.88
70229;BME280;57617;51.988;5.854;2023-03-03T04:25:01;102041.56;;;5.81;64.17
70229;BME280;57617;51.988;5.854;2023-03-03T04:27:35;102056.31;;;5.85;64.99
70229;BME280;57617;51.988;5.854;2023-03-03T04:30:03;102045.53;;;5.85;64.94
70229;BME280;57617;51.988;5.854;2023-03-03T04:32:28;102053.84;;;5.84;64.40
70229;BME280;57617;51.988;5.854;2023-03-03T04:34:54;102062.56;;;5.86;64.62
70229;BME280;57617;51.988;5.854;2023-03-03T04:37:20;102063.41;;;5.86;64.65
70229;BME280;57617;51.988;5.854;2023-03-03T04:39:45;102060.50;;;5.88;64.81
70229;BME280;57617;51.988;5.854;2023-03-03T04:42:10;102054.66;;;5.84;64.91
70229;BME280;57617;51.988;5.854;2023-03-03T04:44:36;102053.63;;;5.85;64.77
70229;BME280;57617;51.988;5.854;2023-03-03T04:47:01;102056.31;;;5.85;64.92
70229;BME280;57617;51.988;5.854;2023-03-03T04:49:27;102054.81;;;5.83;65.06
70229;BME280;57617;51.988;5.854;2023-03-03T04:51:52;102048.47;;;5.76;65.32
70229;BME280;57617;51.988;5.854;2023-03-03T04:54:17;102053.84;;;5.76;65.26
70229;BME280;57617;51.988;5.854;2023-03-03T04:56:43;102050.81;;;5.79;64.87
70229;BME280;57617;51.988;5.854;2023-03-03T04:59:08;102058.03;;;5.78;65.11
70229;BME280;57617;51.988;5.854;2023-03-03T05:01:33;102068.69;;;5.80;64.91
70229;BME280;57617;51.988;5.854;2023-03-03T05:03:59;102072.69;;;5.84;64.58
70229;BME280;57617;51.988;5.854;2023-03-03T05:06:24;102062.25;;;5.81;64.85
70229;BME280;57617;51.988;5.854;2023-03-03T05:08:49;102060.59;;;5.80;64.90
70229;BME280;57617;51.988;5.854;2023-03-03T05:11:15;102061.41;;;5.80;64.90
70229;BME280;57617;51.988;5.854;2023-03-03T05:13:40;102065.47;;;5.76;65.33
70229;BME280;57617;51.988;5.854;2023-03-03T05:16:05;102065.66;;;5.75;65.62
70229;BME280;57617;51.988;5.854;2023-03-03T05:18:31;102070.66;;;5.78;65.39
70229;BME280;57617;51.988;5.854;2023-03-03T05:20:56;102072.19;;;5.80;65.04
70229;BME280;57617;51.988;5.854;2023-03-03T05:23:22;102059.97;;;5.70;65.43
70229;BME280;57617;51.988;5.854;2023-03-03T05:25:48;102060.97;;;5.69;65.81
70229;BME280;57617;51.988;5.854;2023-03-03T05:28:14;102069.53;;;5.72;65.62
70229;BME280;57617;51.988;5.854;2023-03-03T05:30:40;102074.75;;;5.74;65.62
70229;BME280;57617;51.988;5.854;2023-03-03T05:33:06;102072.88;;;5.74;65.52
70229;BME280;57617;51.988;5.854;2023-03-03T05:35:32;102073.56;;;5.76;65.02
70229;BME280;57617;51.988;5.854;2023-03-03T05:37:57;102079.94;;;5.75;65.27
70229;BME280;57617;51.988;5.854;2023-03-03T05:40:24;102063.16;;;5.65;65.75
70229;BME280;57617;51.988;5.854;2023-03-03T05:42:50;102082.16;;;5.72;65.26
70229;BME280;57617;51.988;5.854;2023-03-03T05:45:15;102076.13;;;5.70;65.57
70229;BME280;57617;51.988;5.854;2023-03-03T05:47:44;102078.69;;;5.63;65.13
70229;BME280;57617;51.988;5.854;2023-03-03T05:50:09;102079.41;;;5.57;65.57
70229;BME280;57617;51.988;5.854;2023-03-03T05:52:36;102086.47;;;5.58;65.67
70229;BME280;57617;51.988;5.854;2023-03-03T05:55:01;102085.09;;;5.62;65.54
70229;BME280;57617;51.988;5.854;2023-03-03T05:57:26;102084.06;;;5.63;65.76
70229;BME280;57617;51.988;5.854;2023-03-03T05:59:52;102076.63;;;5.65;65.86
70229;BME280;57617;51.988;5.854;2023-03-03T06:02:17;102082.72;;;5.67;65.72
70229;BME280;57617;51.988;5.854;2023-03-03T06:04:42;102089.78;;;5.68;65.30
70229;BME280;57617;51.988;5.854;2023-03-03T06:07:07;102087.94;;;5.69;65.62
70229;BME280;57617;51.988;5.854;2023-03-03T06:09:33;102092.94;;;5.72;65.58
70229;BME280;57617;51.988;5.854;2023-03-03T06:11:58;102093.13;;;5.70;64.94
70229;BME280;57617;51.988;5.854;2023-03-03T06:14:24;102089.44;;;5.71;65.24
70229;BME280;57617;51.988;5.854;2023-03-03T06:16:49;102101.41;;;5.69;64.98
70229;BME280;57617;51.988;5.854;2023-03-03T06:19:15;102101.75;;;5.66;65.64
70229;BME280;57617;51.988;5.854;2023-03-03T06:21:41;102104.63;;;5.64;65.81
70229;BME280;57617;51.988;5.854;2023-03-03T06:24:06;102097.22;;;5.66;65.68
70229;BME280;57617;51.988;5.854;2023-03-03T06:26:32;102101.09;;;5.64;65.28
70229;BME280;57617;51.988;5.854;2023-03-03T06:28:58;102107.78;;;5.68;65.56
70229;BME280;57617;51.988;5.854;2023-03-03T06:31:23;102104.91;;;5.69;65.88
70229;BME280;57617;51.988;5.854;2023-03-03T06:33:49;102114.03;;;5.68;65.89
70229;BME280;57617;51.988;5.854;2023-03-03T06:36:15;102114.88;;;5.69;65.71
70229;BME280;57617;51.988;5.854;2023-03-03T06:38:40;102115.06;;;5.67;65.98
70229;BME280;57617;51.988;5.854;2023-03-03T06:41:06;102109.66;;;5.67;65.78
70229;BME280;57617;51.988;5.854;2023-03-03T06:43:33;102115.38;;;5.72;65.73
70229;BME280;57617;51.988;5.854;2023-03-03T06:45:59;102113.78;;;5.78;65.63
70229;BME280;57617;51.988;5.854;2023-03-03T06:48:24;102122.72;;;5.78;66.00
70229;BME280;57617;51.988;5.854;2023-03-03T06:50:49;102118.53;;;5.76;66.05
70229;BME280;57617;51.988;5.854;2023-03-03T06:53:16;102119.19;;;5.78;65.93
70229;BME280;57617;51.988;5.854;2023-03-03T06:55:42;102111.00;;;5.71;65.86
70229;BME280;57617;51.988;5.854;2023-03-03T06:58:20;102124.41;;;5.79;66.01
70229;BME280;57617;51.988;5.854;2023-03-03T07:00:59;102125.78;;;5.75;66.19
70229;BME280;57617;51.988;5.854;2023-03-03T07:03:34;102129.78;;;5.79;65.89
70229;BME280;57617;51.988;5.854;2023-03-03T07:06:01;102124.78;;;5.76;65.71
70229;BME280;57617;51.988;5.854;2023-03-03T07:08:30;102128.00;;;5.80;66.15
70229;BME280;57617;51.988;5.854;2023-03-03T07:11:00;102136.06;;;5.80;65.90
70229;BME280;57617;51.988;5.854;2023-03-03T07:13:31;102145.66;;;5.82;65.94
70229;BME280;57617;51.988;5.854;2023-03-03T07:16:00;102145.28;;;5.85;66.03
70229;BME280;57617;51.988;5.854;2023-03-03T07:18:38;102141.47;;;5.80;66.34
70229;BME280;57617;51.988;5.854;2023-03-03T07:23:39;102142.41;;;5.87;66.01
70229;BME280;57617;51.988;5.854;2023-03-03T07:26:11;102144.94;;;5.88;66.25
70229;BME280;57617;51.988;5.854;2023-03-03T07:28:40;102147.34;;;5.83;66.52
70229;BME280;57617;51.988;5.854;2023-03-03T07:31:19;102156.06;;;5.85;66.50
70229;BME280;57617;51.988;5.854;2023-03-03T07:33:49;102152.00;;;5.89;66.62
70229;BME280;57617;51.988;5.854;2023-03-03T07:36:25;102152.38;;;5.86;66.52
70229;BME280;57617;51.988;5.854;2023-03-03T07:38:54;102159.38;;;5.95;66.05
70229;BME280;57617;51.988;5.854;2023-03-03T07:41:20;102155.38;;;5.91;66.79
70229;BME280;57617;51.988;5.854;2023-03-03T07:43:49;102166.81;;;5.93;66.20
70229;BME280;57617;51.988;5.854;2023-03-03T07:48:55;102168.88;;;5.91;66.62
70229;BME280;57617;51.988;5.854;2023-03-03T07:51:28;102175.09;;;5.92;66.80
70229;BME280;57617;51.988;5.854;2023-03-03T07:54:00;102175.22;;;5.98;67.09
70229;BME280;57617;51.988;5.854;2023-03-03T07:56:38;102174.56;;;5.96;66.72
70229;BME280;57617;51.988;5.854;2023-03-03T07:59:23;102172.84;;;6.03;67.84
70229;BME280;57617;51.988;5.854;2023-03-03T08:01:58;102185.63;;;6.01;67.51
70229;BME280;57617;51.988;5.854;2023-03-03T08:04:40;102184.81;;;6.01;67.30
70229;BME280;57617;51.988;5.854;2023-03-03T08:07:11;102186.78;;;6.07;66.96
70229;BME280;57617;51.988;5.854;2023-03-03T08:09:48;102185.25;;;6.12;67.54
70229;BME280;57617;51.988;5.854;2023-03-03T08:15:23;102195.81;;;6.22;67.67
70229;BME280;57617;51.988;5.854;2023-03-03T08:17:50;102194.59;;;6.24;67.09
70229;BME280;57617;51.988;5.854;2023-03-03T08:20:45;102204.06;;;6.20;67.38
70229;BME280;57617;51.988;5.854;2023-03-03T08:23:13;102205.25;;;6.18;67.45
70229;BME280;57617;51.988;5.854;2023-03-03T08:25:39;102195.50;;;6.17;67.30
70229;BME280;57617;51.988;5.854;2023-03-03T08:28:07;102210.31;;;6.21;66.93
70229;BME280;57617;51.988;5.854;2023-03-03T08:30:32;102214.84;;;6.20;66.89
70229;BME280;57617;51.988;5.854;2023-03-03T08:32:58;102218.56;;;6.19;66.80
70229;BME280;57617;51.988;5.854;2023-03-03T08:35:23;102212.84;;;6.22;66.85
70229;BME280;57617;51.988;5.854;2023-03-03T08:37:48;102219.19;;;6.29;67.41
70229;BME280;57617;51.988;5.854;2023-03-03T08:40:13;102223.88;;;6.35;66.75
70229;BME280;57617;51.988;5.854;2023-03-03T08:42:39;102225.84;;;6.41;66.77
70229;BME280;57617;51.988;5.854;2023-03-03T08:45:04;102226.16;;;6.46;66.66
70229;BME280;57617;51.988;5.854;2023-03-03T08:47:30;102220.44;;;6.41;66.25
70229;BME280;57617;51.988;5.854;2023-03-03T08:49:55;102219.41;;;6.42;66.98
70229;BME280;57617;51.988;5.854;2023-03-03T08:52:20;102226.31;;;6.45;67.16
70229;BME280;57617;51.988;5.854;2023-03-03T08:54:46;102218.06;;;6.46;66.50
70229;BME280;57617;51.988;5.854;2023-03-03T08:57:11;102219.03;;;6.53;66.50
70229;BME280;57617;51.988;5.854;2023-03-03T08:59:36;102223.03;;;6.57;65.94
70229;BME280;57617;51.988;5.854;2023-03-03T09:02:06;102218.78;;;6.63;66.69
70229;BME280;57617;51.988;5.854;2023-03-03T09:04:32;102221.59;;;6.69;66.52
70229;BME280;57617;51.988;5.854;2023-03-03T09:06:57;102222.97;;;6.65;65.84
70229;BME280;57617;51.988;5.854;2023-03-03T09:09:23;102210.09;;;6.53;66.48
70229;BME280;57617;51.988;5.854;2023-03-03T09:11:48;102222.97;;;6.65;66.28
70229;BME280;57617;51.988;5.854;2023-03-03T09:14:17;102221.59;;;6.69;65.97
70229;BME280;57617;51.988;5.854;2023-03-03T09:16:50;102212.31;;;6.72;66.45
70229;BME280;57617;51.988;5.854;2023-03-03T09:19:29;102216.41;;;6.82;65.85
70229;BME280;57617;51.988;5.854;2023-03-03T09:22:00;102224.97;;;6.86;65.40
70229;BME280;57617;51.988;5.854;2023-03-03T09:24:29;102218.03;;;6.91;65.40
70229;BME280;57617;51.988;5.854;2023-03-03T09:26:56;102226.34;;;7.04;65.44
70229;BME280;57617;51.988;5.854;2023-03-03T09:29:26;102226.94;;;7.14;64.86
70229;BME280;57617;51.988;5.854;2023-03-03T09:31:57;102210.53;;;7.16;64.05
70229;BME280;57617;51.988;5.854;2023-03-03T09:36:55;102213.16;;;7.38;64.96
70229;BME280;57617;51.988;5.854;2023-03-03T09:39:29;102220.34;;;7.60;64.74
70229;BME280;57617;51.988;5.854;2023-03-03T09:45:06;102212.91;;;8.12;63.68
70229;BME280;57617;51.988;5.854;2023-03-03T09:50:32;102223.91;;;8.25;63.71
70229;BME280;57617;51.988;5.854;2023-03-03T09:55:49;102229.97;;;8.13;62.47
70229;BME280;57617;51.988;5.854;2023-03-03T10:07:08;102231.78;;;7.77;62.28
70229;BME280;57617;51.988;5.854;2023-03-03T10:09:49;102236.38;;;7.76;63.29
70229;BME280;57617;51.988;5.854;2023-03-03T10:15:31;102233.28;;;7.94;63.53
70229;BME280;57617;51.988;5.854;2023-03-03T10:17:57;102230.28;;;8.03;62.26
70229;BME280;57617;51.988;5.854;2023-03-03T10:22:59;102229.47;;;8.38;63.09
70229;BME280;57617;51.988;5.854;2023-03-03T10:28:44;102222.31;;;8.73;61.97
70229;BME280;57617;51.988;5.854;2023-03-03T10:37:05;102236.75;;;9.28;59.77
70229;BME280;57617;51.988;5.854;2023-03-03T10:45:28;102224.97;;;9.42;60.46
70229;BME280;57617;51.988;5.854;2023-03-03T10:48:17;102222.53;;;9.54;60.13
70229;BME280;57617;51.988;5.854;2023-03-03T10:53:26;102225.31;;;9.60;59.27
70229;BME280;57617;51.988;5.854;2023-03-03T11:07:07;102224.03;;;10.03;56.46
70229;BME280;57617;51.988;5.854;2023-03-03T11:12:30;102215.59;;;9.85;57.06
70229;BME280;57617;51.988;5.854;2023-03-03T11:20:56;102210.84;;;9.87;57.68
70229;BME280;57617;51.988;5.854;2023-03-03T11:23:45;102207.41;;;10.06;57.01
70229;BME280;57617;51.988;5.854;2023-03-03T11:29:24;102201.81;;;10.34;57.47
70229;BME280;57617;51.988;5.854;2023-03-03T11:37:29;102202.53;;;10.62;56.08
70229;BME280;57617;51.988;5.854;2023-03-03T11:40:08;102199.38;;;10.58;56.51
70229;BME280;57617;51.988;5.854;2023-03-03T11:42:53;102203.75;;;10.53;55.57
70229;BME280;57617;51.988;5.854;2023-03-03T11:45:26;102195.59;;;10.46;56.30
70229;BME280;57617;51.988;5.854;2023-03-03T11:48:00;102198.06;;;10.41;55.81
70229;BME280;57617;51.988;5.854;2023-03-03T11:50:35;102193.69;;;10.27;55.51
70229;BME280;57617;51.988;5.854;2023-03-03T11:55:43;102191.84;;;10.41;56.22
70229;BME280;57617;51.988;5.854;2023-03-03T11:58:43;102179.94;;;10.61;55.41
70229;BME280;57617;51.988;5.854;2023-03-03T12:04:02;102177.03;;;10.95;54.16
70229;BME280;57617;51.988;5.854;2023-03-03T12:09:00;102181.81;;;11.06;54.70
70229;BME280;57617;51.988;5.854;2023-03-03T12:11:48;102172.41;;;11.15;52.76
70229;BME280;57617;51.988;5.854;2023-03-03T12:14:46;102165.28;;;11.27;53.42
70229;BME280;57617;51.988;5.854;2023-03-03T12:22:50;102167.25;;;11.77;53.76
70229;BME280;57617;51.988;5.854;2023-03-03T12:28:05;102169.00;;;11.59;51.75
70229;BME280;57617;51.988;5.854;2023-03-03T12:30:46;102158.34;;;11.44;52.48
70229;BME280;57617;51.988;5.854;2023-03-03T12:33:21;102158.16;;;11.26;51.72
70229;BME280;57617;51.988;5.854;2023-03-03T12:41:15;102154.38;;;11.27;51.16
70229;BME280;57617;51.988;5.854;2023-03-03T12:44:05;102145.16;;;11.41;49.96
70229;BME280;57617;51.988;5.854;2023-03-03T12:49:15;102141.13;;;11.63;52.63
70229;BME280;57617;51.988;5.854;2023-03-03T12:52:02;102142.53;;;11.79;50.48
70229;BME280;57617;51.988;5.854;2023-03-03T13:03:08;102131.94;;;12.02;51.48
70229;BME280;57617;51.988;5.854;2023-03-03T13:08:28;102134.75;;;11.89;49.34
70229;BME280;57617;51.988;5.854;2023-03-03T13:13:37;102133.16;;;11.68;50.57
70229;BME280;57617;51.988;5.854;2023-03-03T13:16:13;102132.09;;;11.69;50.18
70229;BME280;57617;51.988;5.854;2023-03-03T13:18:59;102119.91;;;11.78;49.08
70229;BME280;57617;51.988;5.854;2023-03-03T13:21:34;102128.66;;;11.87;49.87
70229;BME280;57617;51.988;5.854;2023-03-03T13:31:55;102112.34;;;12.18;49.00
70229;BME280;57617;51.988;5.854;2023-03-03T13:34:38;102118.78;;;12.30;47.36
70229;BME280;57617;51.988;5.854;2023-03-03T13:37:14;102112.06;;;12.32;48.05
70229;BME280;57617;51.988;5.854;2023-03-03T13:39:56;102106.13;;;12.42;46.63
70229;BME280;57617;51.988;5.854;2023-03-03T13:42:31;102105.69;;;12.45;47.96
70229;BME280;57617;51.988;5.854;2023-03-03T13:45:00;102102.28;;;12.49;48.07
70229;BME280;57617;51.988;5.854;2023-03-03T13:47:40;102108.84;;;12.66;46.64
70229;BME280;57617;51.988;5.854;2023-03-03T13:50:26;102107.09;;;12.78;47.04
70229;BME280;57617;51.988;5.854;2023-03-03T13:58:52;102107.34;;;12.46;47.29
70229;BME280;57617;51.988;5.854;2023-03-03T14:04:01;102109.16;;;12.27;48.23
70229;BME280;57617;51.988;5.854;2023-03-03T14:06:29;102099.09;;;12.28;48.50
70229;BME280;57617;51.988;5.854;2023-03-03T14:11:45;102103.75;;;12.52;47.97
70229;BME280;57617;51.988;5.854;2023-03-03T14:14:26;102100.59;;;12.55;46.55
70229;BME280;57617;51.988;5.854;2023-03-03T14:16:59;102104.41;;;12.47;47.91
70229;BME280;57617;51.988;5.854;2023-03-03T14:19:51;102099.00;;;12.41;47.11
70229;BME280;57617;51.988;5.854;2023-03-03T14:22:25;102089.47;;;12.25;47.68
70229;BME280;57617;51.988;5.854;2023-03-03T14:24:59;102102.09;;;12.20;47.45
70229;BME280;57617;51.988;5.854;2023-03-03T14:27:32;102100.91;;;12.09;47.62
70229;BME280;57617;51.988;5.854;2023-03-03T14:29:58;102075.91;;;11.88;48.23
70229;BME280;57617;51.988;5.854;2023-03-03T14:32:25;102092.34;;;12.06;47.94
70229;BME280;57617;51.988;5.854;2023-03-03T14:34:58;102095.28;;;12.04;47.57
70229;BME280;57617;51.988;5.854;2023-03-03T14:37:28;102097.38;;;12.02;48.00
70229;BME280;57617;51.988;5.854;2023-03-03T14:45:36;102083.25;;;12.18;46.83
70229;BME280;57617;51.988;5.854;2023-03-03T14:48:23;102082.19;;;12.19;47.54
70229;BME280;57617;51.988;5.854;2023-03-03T14:51:14;102084.72;;;12.14;47.99
70229;BME280;57617;51.988;5.854;2023-03-03T14:53:44;102082.88;;;12.08;48.04
70229;BME280;57617;51.988;5.854;2023-03-03T14:56:21;102089.00;;;12.04;48.53
70229;BME280;57617;51.988;5.854;2023-03-03T14:58:48;102081.25;;;12.01;48.85
70229;BME280;57617;51.988;5.854;2023-03-03T15:01:23;102084.88;;;11.95;47.76
70229;BME280;57617;51.988;5.854;2023-03-03T15:06:29;102086.88;;;11.75;47.96
70229;BME280;57617;51.988;5.854;2023-03-03T15:08:55;102076.88;;;11.62;48.68
70229;BME280;57617;51.988;5.854;2023-03-03T15:11:26;102084.19;;;11.62;48.25
70229;BME280;57617;51.988;5.854;2023-03-03T15:14:10;102077.28;;;11.59;48.59
70229;BME280;57617;51.988;5.854;2023-03-03T15:16:36;102075.66;;;11.52;47.91
70229;BME280;57617;51.988;5.854;2023-03-03T15:21:53;102074.81;;;11.51;48.43
70229;BME280;57617;51.988;5.854;2023-03-03T15:24:33;102073.75;;;11.52;47.30
70229;BME280;57617;51.988;5.854;2023-03-03T15:27:27;102074.81;;;11.51;47.67
70229;BME280;57617;51.988;5.854;2023-03-03T15:32:52;102072.75;;;11.40;47.62
70229;BME280;57617;51.988;5.854;2023-03-03T15:35:33;102067.94;;;11.36;48.25
70229;BME280;57617;51.988;5.854;2023-03-03T15:47:23;102065.28;;;11.23;49.12
70229;BME280;57617;51.988;5.854;2023-03-03T15:52:39;102065.31;;;11.10;49.21
70229;BME280;57617;51.988;5.854;2023-03-03T16:01:01;102057.81;;;11.05;49.54
70229;BME280;57617;51.988;5.854;2023-03-03T16:03:37;102042.16;;;10.94;49.63
70229;BME280;57617;51.988;5.854;2023-03-03T16:09:04;102054.91;;;11.00;49.60
70229;BME280;57617;51.988;5.854;2023-03-03T16:16:52;102064.94;;;11.00;50.03
70229;BME280;57617;51.988;5.854;2023-03-03T16:22:24;102064.97;;;10.93;50.06